createdAt,value
2017-10-13T00:00:41.028Z,11.7
2017-10-13T00:01:42.940Z,11.7
2017-10-13T00:02:45.026Z,11.7
2017-10-13T00:03:46.982Z,11.7
2017-10-13T00:04:48.860Z,11.7
2017-10-13T00:05:50.776Z,11.7
2017-10-13T00:06:52.657Z,11.8
2017-10-13T00:07:54.572Z,11.8
2017-10-13T00:08:56.547Z,11.7
2017-10-13T00:09:58.488Z,11.6
2017-10-13T00:11:00.507Z,11.6
2017-10-13T00:12:02.451Z,11.7
2017-10-13T00:13:04.443Z,11.7
2017-10-13T00:14:06.379Z,11.8
2017-10-13T00:15:08.484Z,11.7
2017-10-13T00:16:10.404Z,11.6
2017-10-13T00:17:12.352Z,11.7
2017-10-13T00:18:14.226Z,11.7
2017-10-13T00:19:16.192Z,11.6
2017-10-13T00:20:18.038Z,11.7
2017-10-13T00:21:19.918Z,11.6
2017-10-13T00:22:21.791Z,11.6
2017-10-13T00:23:23.738Z,11.6
2017-10-13T00:24:25.658Z,11.6
2017-10-13T00:25:27.541Z,11.5
2017-10-13T00:26:29.461Z,11.5
2017-10-13T00:27:32.003Z,11.5
2017-10-13T00:28:33.870Z,11.5
2017-10-13T00:29:35.818Z,11.6
2017-10-13T00:30:37.682Z,11.5
2017-10-13T00:31:39.570Z,11.5
2017-10-13T00:32:41.470Z,11.5
2017-10-13T00:33:43.336Z,11.6
2017-10-13T00:34:45.251Z,11.5
2017-10-13T00:35:47.150Z,11.5
2017-10-13T00:36:49.072Z,11.6
2017-10-13T00:37:51.052Z,11.5
2017-10-13T00:38:52.987Z,11.7
2017-10-13T00:39:54.931Z,11.7
2017-10-13T00:40:56.859Z,11.7
2017-10-13T00:41:58.790Z,11.6
2017-10-13T00:43:00.709Z,11.7
2017-10-13T00:44:02.681Z,11.7
2017-10-13T00:45:04.738Z,11.7
2017-10-13T00:46:06.627Z,11.5
2017-10-13T00:47:08.563Z,11.6
2017-10-13T00:48:10.492Z,11.7
2017-10-13T00:49:12.524Z,11.7
2017-10-13T00:50:14.451Z,11.8
2017-10-13T00:51:16.360Z,11.6
2017-10-13T00:52:18.312Z,11.6
2017-10-13T00:53:20.232Z,11.7
2017-10-13T00:54:22.175Z,11.6
2017-10-13T00:55:24.080Z,11.6
2017-10-13T00:56:25.976Z,11.6
2017-10-13T00:57:27.872Z,11.6
2017-10-13T00:58:29.760Z,11.7
2017-10-13T00:59:31.761Z,11.8
2017-10-13T01:00:33.831Z,11.6
2017-10-13T01:01:35.746Z,11.7
2017-10-13T01:02:37.695Z,11.7
2017-10-13T01:03:39.583Z,11.7
2017-10-13T01:04:41.498Z,11.7
2017-10-13T01:05:43.401Z,11.7
2017-10-13T01:06:45.253Z,11.7
2017-10-13T01:07:47.152Z,11.7
2017-10-13T01:08:49.065Z,11.7
2017-10-13T01:09:51.053Z,11.8
2017-10-13T01:10:53.024Z,11.8
2017-10-13T01:11:54.859Z,11.7
2017-10-13T01:12:56.701Z,11.6
2017-10-13T01:13:58.652Z,11.7
2017-10-13T01:15:00.563Z,11.6
2017-10-13T01:16:02.561Z,11.6
2017-10-13T01:17:04.482Z,11.6
2017-10-13T01:18:06.547Z,11.6
2017-10-13T01:19:08.365Z,11.6
2017-10-13T01:20:10.280Z,11.6
2017-10-13T01:21:12.203Z,11.6
2017-10-13T01:22:14.068Z,11.6
2017-10-13T01:23:15.992Z,11.5
2017-10-13T01:24:17.873Z,11.5
2017-10-13T01:25:19.812Z,11.4
2017-10-13T01:26:21.710Z,11.5
2017-10-13T01:27:23.713Z,11.5
2017-10-13T01:28:25.652Z,11.6
2017-10-13T01:29:27.591Z,11.6
2017-10-13T01:30:29.570Z,11.6
2017-10-13T01:31:31.497Z,11.6
2017-10-13T01:32:33.401Z,11.6
2017-10-13T01:33:35.321Z,11.6
2017-10-13T01:34:37.291Z,11.8
2017-10-13T01:35:41.641Z,11.7
2017-10-13T01:36:43.771Z,11.7
2017-10-13T01:37:45.694Z,11.6
2017-10-13T01:38:47.616Z,11.6
2017-10-13T01:39:49.537Z,11.6
2017-10-13T01:40:51.419Z,11.7
2017-10-13T01:41:53.299Z,11.6
2017-10-13T01:42:55.265Z,11.6
2017-10-13T01:43:57.191Z,11.5
2017-10-13T01:44:59.114Z,11.6
2017-10-13T01:46:01.069Z,11.6
2017-10-13T01:47:03.033Z,11.6
2017-10-13T01:48:05.004Z,11.6
2017-10-13T01:49:07.017Z,11.8
2017-10-13T01:50:08.998Z,11.7
2017-10-13T01:51:10.884Z,11.7
2017-10-13T01:52:12.862Z,11.7
2017-10-13T01:53:14.847Z,11.7
2017-10-13T01:54:16.754Z,11.8
2017-10-13T01:55:18.698Z,11.8
2017-10-13T01:56:20.790Z,11.6
2017-10-13T01:57:22.679Z,11.7
2017-10-13T01:58:24.604Z,11.8
2017-10-13T01:59:26.508Z,11.7
2017-10-13T02:00:28.445Z,11.8
2017-10-13T02:01:30.367Z,11.8
2017-10-13T02:02:32.382Z,11.8
2017-10-13T02:03:34.347Z,11.9
2017-10-13T02:04:36.297Z,11.8
2017-10-13T02:05:38.266Z,11.7
2017-10-13T02:06:40.103Z,11.8
2017-10-13T02:07:42.211Z,11.7
2017-10-13T02:08:44.316Z,11.8
2017-10-13T02:09:46.161Z,11.8
2017-10-13T02:10:48.122Z,11.8
2017-10-13T02:11:50.061Z,11.9
2017-10-13T02:12:52.062Z,11.8
2017-10-13T02:13:53.981Z,11.9
2017-10-13T02:14:55.902Z,11.9
2017-10-13T02:15:57.855Z,11.9
2017-10-13T02:16:59.778Z,11.9
2017-10-13T02:18:01.677Z,12
2017-10-13T02:19:03.549Z,12
2017-10-13T02:20:05.485Z,12.1
2017-10-13T02:21:07.343Z,12.1
2017-10-13T02:22:09.269Z,12
2017-10-13T02:23:11.396Z,12
2017-10-13T02:24:13.297Z,11.9
2017-10-13T02:25:15.188Z,12
2017-10-13T02:26:17.046Z,11.9
2017-10-13T02:27:19.000Z,11.9
2017-10-13T02:28:20.910Z,12
2017-10-13T02:29:22.863Z,12
2017-10-13T02:30:24.679Z,12.1
2017-10-13T02:31:26.575Z,12
2017-10-13T02:32:28.448Z,12
2017-10-13T02:33:30.371Z,12
2017-10-13T02:34:32.304Z,12.1
2017-10-13T02:35:34.231Z,12.1
2017-10-13T02:36:36.214Z,11.9
2017-10-13T02:37:38.111Z,11.9
2017-10-13T02:38:40.218Z,12
2017-10-13T02:39:42.146Z,12.1
2017-10-13T02:40:44.129Z,12
2017-10-13T02:41:46.077Z,12
2017-10-13T02:42:48.040Z,11.9
2017-10-13T02:43:50.021Z,11.9
2017-10-13T02:44:51.901Z,11.9
2017-10-13T02:45:53.861Z,11.9
2017-10-13T02:46:55.802Z,11.9
2017-10-13T02:47:57.702Z,11.9
2017-10-13T02:48:59.616Z,11.9
2017-10-13T02:50:01.519Z,11.9
2017-10-13T02:51:03.447Z,11.9
2017-10-13T02:52:05.401Z,11.8
2017-10-13T02:53:07.319Z,11.8
2017-10-13T02:54:09.269Z,11.8
2017-10-13T02:55:11.151Z,11.9
2017-10-13T02:56:13.096Z,11.9
2017-10-13T02:57:15.028Z,11.9
2017-10-13T02:58:16.974Z,11.8
2017-10-13T02:59:18.863Z,11.8
2017-10-13T03:00:20.764Z,11.9
2017-10-13T03:01:22.695Z,11.8
2017-10-13T03:02:24.633Z,11.9
2017-10-13T03:03:26.588Z,11.9
2017-10-13T03:04:28.540Z,11.9
2017-10-13T03:05:30.379Z,11.9
2017-10-13T03:06:32.262Z,11.9
2017-10-13T03:07:34.288Z,11.9
2017-10-13T03:08:36.232Z,11.9
2017-10-13T03:09:38.144Z,11.8
2017-10-13T03:10:40.064Z,11.8
2017-10-13T03:11:41.993Z,11.7
2017-10-13T03:12:43.934Z,11.8
2017-10-13T03:13:45.821Z,11.7
2017-10-13T03:14:47.763Z,11.6
2017-10-13T03:15:49.601Z,11.7
2017-10-13T03:16:51.601Z,11.7
2017-10-13T03:17:53.581Z,11.7
2017-10-13T03:18:55.554Z,11.6
2017-10-13T03:19:57.501Z,11.7
2017-10-13T03:20:59.483Z,11.7
2017-10-13T03:22:01.356Z,11.6
2017-10-13T03:23:03.293Z,11.7
2017-10-13T03:24:05.221Z,11.6
2017-10-13T03:25:07.190Z,11.6
2017-10-13T03:26:09.140Z,11.7
2017-10-13T03:27:11.083Z,11.8
2017-10-13T03:28:13.003Z,11.8
2017-10-13T03:29:14.948Z,11.8
2017-10-13T03:30:16.872Z,11.7
2017-10-13T03:31:18.773Z,11.6
2017-10-13T03:32:20.722Z,11.8
2017-10-13T03:33:22.594Z,11.8
2017-10-13T03:34:24.733Z,11.7
2017-10-13T03:35:26.675Z,11.7
2017-10-13T03:36:28.644Z,11.7
2017-10-13T03:37:30.560Z,11.6
2017-10-13T03:38:32.478Z,11.6
2017-10-13T03:39:34.484Z,11.6
2017-10-13T03:40:36.410Z,11.7
2017-10-13T03:41:38.364Z,11.7
2017-10-13T03:42:40.387Z,11.7
2017-10-13T03:43:42.294Z,11.8
2017-10-13T03:44:44.227Z,11.7
2017-10-13T03:45:46.193Z,11.7
2017-10-13T03:46:48.039Z,11.7
2017-10-13T03:47:49.892Z,11.6
2017-10-13T03:48:51.853Z,11.6
2017-10-13T03:49:53.794Z,11.5
2017-10-13T03:50:55.712Z,11.6
2017-10-13T03:51:57.605Z,11.7
2017-10-13T03:52:59.544Z,11.6
2017-10-13T03:54:01.422Z,11.6
2017-10-13T03:55:03.280Z,11.6
2017-10-13T03:56:05.165Z,11.5
2017-10-13T03:57:07.092Z,11.6
2017-10-13T03:58:09.039Z,11.6
2017-10-13T03:59:10.886Z,11.5
2017-10-13T04:00:12.789Z,11.5
2017-10-13T04:01:14.741Z,11.6
2017-10-13T04:02:16.692Z,11.6
2017-10-13T04:03:18.825Z,11.7
2017-10-13T04:04:20.684Z,11.7
2017-10-13T04:05:22.600Z,11.7
2017-10-13T04:06:25.057Z,11.7
2017-10-13T04:07:27.050Z,11.7
2017-10-13T04:08:29.201Z,11.7
2017-10-13T04:09:31.144Z,11.6
2017-10-13T04:10:33.100Z,11.6
2017-10-13T04:11:35.576Z,11.6
2017-10-13T04:12:37.524Z,11.6
2017-10-13T04:13:39.463Z,11.6
2017-10-13T04:14:41.380Z,11.6
2017-10-13T04:15:43.341Z,11.6
2017-10-13T04:16:45.256Z,11.7
2017-10-13T04:17:47.139Z,11.7
2017-10-13T04:18:49.035Z,11.8
2017-10-13T04:19:50.936Z,11.7
2017-10-13T04:20:52.816Z,11.7
2017-10-13T04:21:54.901Z,11.7
2017-10-13T04:22:56.862Z,11.6
2017-10-13T04:23:58.795Z,11.6
2017-10-13T04:25:00.677Z,11.7
2017-10-13T04:26:02.571Z,11.7
2017-10-13T04:27:04.472Z,11.8
2017-10-13T04:28:06.366Z,11.8
2017-10-13T04:29:08.202Z,11.8
2017-10-13T04:30:10.160Z,11.8
2017-10-13T04:31:12.097Z,11.8
2017-10-13T04:32:14.096Z,11.8
2017-10-13T04:33:15.988Z,11.8
2017-10-13T04:34:17.872Z,11.8
2017-10-13T04:35:20.241Z,11.8
2017-10-13T04:36:22.177Z,11.7
2017-10-13T04:37:24.041Z,11.8
2017-10-13T04:38:25.918Z,11.8
2017-10-13T04:39:27.812Z,11.9
2017-10-13T04:40:29.730Z,11.8
2017-10-13T04:41:31.713Z,11.7
2017-10-13T04:42:33.668Z,11.7
2017-10-13T04:43:35.520Z,11.8
2017-10-13T04:44:37.345Z,11.7
2017-10-13T04:45:39.278Z,11.7
2017-10-13T04:46:41.188Z,11.8
2017-10-13T04:47:43.151Z,11.8
2017-10-13T04:48:45.068Z,11.7
2017-10-13T04:49:46.988Z,11.7
2017-10-13T04:50:48.908Z,11.7
2017-10-13T04:51:50.851Z,11.8
2017-10-13T04:52:52.752Z,11.8
2017-10-13T04:53:54.638Z,11.8
2017-10-13T04:54:56.504Z,11.8
2017-10-13T04:55:58.418Z,11.8
2017-10-13T04:57:00.250Z,11.7
2017-10-13T04:58:02.173Z,11.8
2017-10-13T04:59:04.031Z,11.8
2017-10-13T05:00:05.935Z,11.9
2017-10-13T05:01:07.945Z,11.8
2017-10-13T05:02:09.876Z,11.8
2017-10-13T05:03:11.805Z,11.7
2017-10-13T05:04:13.735Z,11.6
2017-10-13T05:05:15.647Z,11.7
2017-10-13T05:06:17.536Z,11.6
2017-10-13T05:07:19.423Z,11.6
2017-10-13T05:08:21.352Z,11.6
2017-10-13T05:09:23.261Z,11.6
2017-10-13T05:10:25.202Z,11.6
2017-10-13T05:11:27.110Z,11.6
2017-10-13T05:12:29.024Z,11.6
2017-10-13T05:13:30.960Z,11.6
2017-10-13T05:14:32.894Z,11.6
2017-10-13T05:15:34.799Z,11.6
2017-10-13T05:16:36.743Z,11.5
2017-10-13T05:17:38.664Z,11.5
2017-10-13T05:18:40.549Z,11.4
2017-10-13T05:19:42.475Z,11.4
2017-10-13T05:20:44.355Z,11.4
2017-10-13T05:21:46.595Z,11.4
2017-10-13T05:22:48.511Z,11.5
2017-10-13T05:23:50.403Z,11.5
2017-10-13T05:24:52.288Z,11.5
2017-10-13T05:25:54.210Z,11.6
2017-10-13T05:26:56.147Z,11.5
2017-10-13T05:27:58.103Z,11.5
2017-10-13T05:29:00.020Z,11.5
2017-10-13T05:30:02.085Z,11.5
2017-10-13T05:31:03.999Z,11.4
2017-10-13T05:32:05.874Z,11.5
2017-10-13T05:33:07.802Z,11.6
2017-10-13T05:34:09.704Z,11.7
2017-10-13T05:35:11.620Z,11.7
2017-10-13T05:36:13.760Z,11.7
2017-10-13T05:37:15.673Z,11.7
2017-10-13T05:38:17.613Z,11.6
2017-10-13T05:39:19.542Z,11.6
2017-10-13T05:40:21.503Z,11.6
2017-10-13T05:41:23.461Z,11.6
2017-10-13T05:42:27.089Z,11.6
2017-10-13T05:43:28.980Z,11.5
2017-10-13T05:44:30.873Z,11.6
2017-10-13T05:45:32.868Z,11.6
2017-10-13T05:46:34.818Z,11.6
2017-10-13T05:47:36.858Z,11.5
2017-10-13T05:48:38.725Z,11.4
2017-10-13T05:49:40.672Z,11.4
2017-10-13T05:50:42.732Z,11.4
2017-10-13T05:51:44.644Z,11.5
2017-10-13T05:52:46.542Z,11.5
2017-10-13T05:53:48.471Z,11.4
2017-10-13T05:54:50.472Z,11.4
2017-10-13T05:55:52.436Z,11.4
2017-10-13T05:56:54.325Z,11.4
2017-10-13T05:57:56.157Z,11.4
2017-10-13T05:58:58.053Z,11.4
2017-10-13T05:59:59.973Z,11.4
2017-10-13T06:01:01.900Z,11.4
2017-10-13T06:02:03.849Z,11.4
2017-10-13T06:03:05.776Z,11.5
2017-10-13T06:04:07.740Z,11.5
2017-10-13T06:05:09.664Z,11.5
2017-10-13T06:06:11.528Z,11.5
2017-10-13T06:07:13.486Z,11.6
2017-10-13T06:08:15.419Z,11.3
2017-10-13T06:09:17.330Z,11.3
2017-10-13T06:10:19.254Z,11.4
2017-10-13T06:11:21.711Z,11.4
2017-10-13T06:12:23.606Z,11.4
2017-10-13T06:13:25.522Z,11.4
2017-10-13T06:14:27.552Z,11.5
2017-10-13T06:15:29.516Z,11.5
2017-10-13T06:16:32.148Z,11.4
2017-10-13T06:17:34.228Z,11.4
2017-10-13T06:18:36.120Z,11.4
2017-10-13T06:19:38.149Z,11.4
2017-10-13T06:20:40.206Z,11.4
2017-10-13T06:21:42.104Z,11.5
2017-10-13T06:22:44.064Z,11.5
2017-10-13T06:23:46.009Z,11.4
2017-10-13T06:24:47.990Z,11.6
2017-10-13T06:25:49.941Z,11.6
2017-10-13T06:26:51.861Z,11.7
2017-10-13T06:27:53.787Z,11.7
2017-10-13T06:28:55.724Z,11.7
2017-10-13T06:29:57.607Z,11.8
2017-10-13T06:30:59.549Z,11.9
2017-10-13T06:32:01.489Z,11.9
2017-10-13T06:33:03.352Z,11.8
2017-10-13T06:34:05.249Z,11.9
2017-10-13T06:35:07.129Z,11.9
2017-10-13T06:36:09.064Z,11.8
2017-10-13T06:37:10.991Z,11.8
2017-10-13T06:38:12.868Z,11.9
2017-10-13T06:39:14.817Z,11.9
2017-10-13T06:40:16.930Z,11.9
2017-10-13T06:41:18.807Z,11.9
2017-10-13T06:42:20.795Z,11.8
2017-10-13T06:43:22.775Z,11.9
2017-10-13T06:44:24.925Z,11.9
2017-10-13T06:45:26.865Z,11.9
2017-10-13T06:46:28.814Z,11.9
2017-10-13T06:47:30.690Z,11.9
2017-10-13T06:48:32.585Z,11.9
2017-10-13T06:49:35.153Z,11.9
2017-10-13T06:50:37.047Z,11.9
2017-10-13T06:51:38.927Z,11.9
2017-10-13T06:52:40.865Z,11.9
2017-10-13T06:53:42.958Z,11.9
2017-10-13T06:54:44.870Z,12.1
2017-10-13T06:55:46.769Z,12.1
2017-10-13T06:56:48.716Z,12.1
2017-10-13T06:57:50.718Z,12.1
2017-10-13T06:58:52.654Z,12.2
2017-10-13T06:59:54.528Z,12.2
2017-10-13T07:00:56.357Z,12.2
2017-10-13T07:01:58.300Z,12.2
2017-10-13T07:03:00.266Z,12.1
2017-10-13T07:04:02.127Z,12.2
2017-10-13T07:05:04.083Z,12.2
2017-10-13T07:06:06.028Z,12.3
2017-10-13T07:07:08.009Z,12.4
2017-10-13T07:08:09.925Z,12.5
2017-10-13T07:09:11.876Z,12.5
2017-10-13T07:10:13.867Z,12.5
2017-10-13T07:11:15.757Z,12.5
2017-10-13T07:12:17.714Z,12.5
2017-10-13T07:13:19.610Z,12.5
2017-10-13T07:14:21.510Z,12.5
2017-10-13T07:15:23.476Z,12.5
2017-10-13T07:16:25.360Z,12.5
2017-10-13T07:17:27.323Z,12.5
2017-10-13T07:18:29.245Z,12.6
2017-10-13T07:19:31.245Z,12.4
2017-10-13T07:20:33.168Z,12.5
2017-10-13T07:21:35.110Z,12.5
2017-10-13T07:22:37.027Z,12.6
2017-10-13T07:23:39.013Z,12.6
2017-10-13T07:24:40.950Z,12.6
2017-10-13T07:25:42.971Z,12.6
2017-10-13T07:26:44.888Z,12.6
2017-10-13T07:27:46.777Z,12.6
2017-10-13T07:28:49.508Z,12.7
2017-10-13T07:29:51.442Z,12.6
2017-10-13T07:30:53.546Z,12.6
2017-10-13T07:31:55.427Z,12.7
2017-10-13T07:32:57.392Z,12.9
2017-10-13T07:33:59.410Z,12.9
2017-10-13T07:35:01.277Z,13.1
2017-10-13T07:36:03.220Z,13.2
2017-10-13T07:37:05.133Z,13.1
2017-10-13T07:38:07.147Z,13.1
2017-10-13T07:39:09.034Z,13.1
2017-10-13T07:40:10.918Z,13.1
2017-10-13T07:41:12.857Z,13.1
2017-10-13T07:42:14.795Z,13.1
2017-10-13T07:43:16.707Z,13.1
2017-10-13T07:44:18.668Z,13
2017-10-13T07:45:20.546Z,13.1
2017-10-13T07:46:22.506Z,13.3
2017-10-13T07:47:24.438Z,13.1
2017-10-13T07:48:26.616Z,13.1
2017-10-13T07:49:28.770Z,13.1
2017-10-13T07:50:30.648Z,13.1
2017-10-13T07:51:32.624Z,12.9
2017-10-13T07:52:34.596Z,12.9
2017-10-13T07:53:36.730Z,12.8
2017-10-13T07:54:38.694Z,12.7
2017-10-13T07:55:40.619Z,12.8
2017-10-13T07:56:42.565Z,12.9
2017-10-13T07:57:44.585Z,12.8
2017-10-13T07:58:46.526Z,12.9
2017-10-13T07:59:48.490Z,12.9
2017-10-13T08:00:50.344Z,12.9
2017-10-13T08:01:52.194Z,13
2017-10-13T08:02:54.095Z,13
2017-10-13T08:03:56.078Z,13.1
2017-10-13T08:04:58.026Z,13.4
2017-10-13T08:06:00.003Z,13.5
2017-10-13T08:07:01.979Z,13.5
2017-10-13T08:08:03.929Z,13.4
2017-10-13T08:09:05.872Z,13.1
2017-10-13T08:10:07.806Z,13.2
2017-10-13T08:11:09.675Z,13.2
2017-10-13T08:12:11.653Z,13.1
2017-10-13T08:13:13.576Z,13
2017-10-13T08:14:15.587Z,13
2017-10-13T08:15:17.619Z,13.2
2017-10-13T08:16:19.635Z,13.1
2017-10-13T08:17:21.562Z,13.1
2017-10-13T08:18:23.602Z,13.1
2017-10-13T08:19:25.608Z,13.1
2017-10-13T08:20:27.551Z,13.1
2017-10-13T08:21:29.654Z,13.2
2017-10-13T08:22:31.634Z,13.2
2017-10-13T08:23:33.665Z,13.1
2017-10-13T08:24:35.698Z,13.1
2017-10-13T08:25:37.780Z,13.2
2017-10-13T08:26:39.944Z,13.1
2017-10-13T08:27:41.926Z,13
2017-10-13T08:28:43.845Z,13
2017-10-13T08:29:45.834Z,13.1
2017-10-13T08:30:47.899Z,13.1
2017-10-13T08:31:49.871Z,13.2
2017-10-13T08:32:51.813Z,13.3
2017-10-13T08:33:53.719Z,13.8
2017-10-13T08:34:55.687Z,13.8
2017-10-13T08:35:57.627Z,15.7
2017-10-13T08:36:59.582Z,16.4
2017-10-13T08:38:01.586Z,16.1
2017-10-13T08:39:03.480Z,15.5
2017-10-13T08:40:05.441Z,15.4
2017-10-13T08:41:07.324Z,16.3
2017-10-13T08:42:09.237Z,16.3
2017-10-13T08:43:11.152Z,17
2017-10-13T08:44:13.073Z,18.4
2017-10-13T08:45:14.998Z,18.9
2017-10-13T08:46:16.950Z,19.1
2017-10-13T08:47:18.960Z,17.1
2017-10-13T08:48:20.932Z,15.7
2017-10-13T08:49:22.919Z,15.1
2017-10-13T08:50:24.886Z,15.1
2017-10-13T08:51:26.753Z,15
2017-10-13T08:52:28.707Z,15.7
2017-10-13T08:53:30.597Z,16.6
2017-10-13T08:54:32.492Z,18.4
2017-10-13T08:55:34.512Z,19.8
2017-10-13T08:56:36.463Z,19.4
2017-10-13T08:57:38.786Z,19
2017-10-13T08:58:40.758Z,16.8
2017-10-13T08:59:42.628Z,15.9
2017-10-13T09:00:44.575Z,15.9
2017-10-13T09:01:46.476Z,15.7
2017-10-13T09:02:48.452Z,15.5
2017-10-13T09:03:50.301Z,15
2017-10-13T09:04:52.174Z,14.9
2017-10-13T09:05:54.108Z,15
2017-10-13T09:06:56.059Z,15.4
2017-10-13T09:07:57.993Z,18.8
2017-10-13T09:09:00.126Z,20.3
2017-10-13T09:10:02.095Z,19.3
2017-10-13T09:11:04.018Z,19
2017-10-13T09:12:05.943Z,18.5
2017-10-13T09:13:07.903Z,17.3
2017-10-13T09:14:09.846Z,16.7
2017-10-13T09:15:11.988Z,16
2017-10-13T09:16:14.058Z,15.9
2017-10-13T09:17:16.023Z,15.5
2017-10-13T09:18:18.032Z,15.9
2017-10-13T09:19:20.034Z,16.1
2017-10-13T09:20:21.926Z,15.6
2017-10-13T09:21:23.861Z,15.4
2017-10-13T09:22:25.747Z,15.2
2017-10-13T09:23:27.662Z,14.9
2017-10-13T09:24:29.622Z,14.9
2017-10-13T09:25:31.644Z,15.3
2017-10-13T09:26:33.604Z,15.2
2017-10-13T09:27:35.656Z,15.2
2017-10-13T09:28:37.586Z,15.4
2017-10-13T09:29:39.497Z,15.5
2017-10-13T09:30:41.405Z,15.2
2017-10-13T09:31:43.335Z,15.1
2017-10-13T09:32:45.292Z,15.1
2017-10-13T09:33:47.170Z,15.7
2017-10-13T09:34:49.118Z,15.9
2017-10-13T09:35:50.966Z,16.3
2017-10-13T09:36:52.931Z,17.7
2017-10-13T09:37:54.859Z,17.4
2017-10-13T09:38:56.800Z,16.5
2017-10-13T09:39:58.883Z,16.4
2017-10-13T09:41:00.762Z,16.4
2017-10-13T09:42:02.683Z,16.3
2017-10-13T09:43:04.559Z,17.3
2017-10-13T09:44:06.393Z,17.7
2017-10-13T09:45:08.263Z,17.2
2017-10-13T09:46:10.253Z,17
2017-10-13T09:47:12.251Z,16.5
2017-10-13T09:48:14.176Z,17.3
2017-10-13T09:49:16.114Z,17.3
2017-10-13T09:50:18.110Z,17.1
2017-10-13T09:51:20.259Z,17
2017-10-13T09:52:22.227Z,16.6
2017-10-13T09:53:24.265Z,16.4
2017-10-13T09:54:26.190Z,16.2
2017-10-13T09:55:28.051Z,15.9
2017-10-13T09:56:29.986Z,15.9
2017-10-13T09:57:32.140Z,15.9
2017-10-13T09:58:34.201Z,15.9
2017-10-13T09:59:36.184Z,16
2017-10-13T10:00:38.135Z,16
2017-10-13T10:01:40.097Z,15.9
2017-10-13T10:02:42.092Z,16.1
2017-10-13T10:03:44.011Z,16.5
2017-10-13T10:04:45.942Z,16.8
2017-10-13T10:05:47.856Z,17
2017-10-13T10:06:49.805Z,17.1
2017-10-13T10:07:51.771Z,17.6
2017-10-13T10:08:53.679Z,17.6
2017-10-13T10:09:55.583Z,17.7
2017-10-13T10:10:57.525Z,18
2017-10-13T10:11:59.391Z,17.8
2017-10-13T10:13:01.373Z,17.1
2017-10-13T10:14:03.372Z,17
2017-10-13T10:15:05.303Z,17.3
2017-10-13T10:16:07.385Z,17.8
2017-10-13T10:17:09.492Z,17.9
2017-10-13T10:18:11.381Z,17.5
2017-10-13T10:19:13.326Z,17.6
2017-10-13T10:20:15.219Z,17.4
2017-10-13T10:21:17.257Z,17.3
2017-10-13T10:22:19.156Z,17
2017-10-13T10:23:21.141Z,16.8
2017-10-13T10:24:23.094Z,16.9
2017-10-13T10:25:24.996Z,16.8
2017-10-13T10:26:26.948Z,16.9
2017-10-13T10:27:28.870Z,17.3
2017-10-13T10:28:30.806Z,17.4
2017-10-13T10:29:32.782Z,17.7
2017-10-13T10:30:34.750Z,17.9
2017-10-13T10:31:36.664Z,17.5
2017-10-13T10:32:38.585Z,17.3
2017-10-13T10:33:40.619Z,17.3
2017-10-13T10:34:42.686Z,17.3
2017-10-13T10:35:44.662Z,17.2
2017-10-13T10:36:46.527Z,17.4
2017-10-13T10:37:48.421Z,17
2017-10-13T10:38:50.380Z,17.2
2017-10-13T10:39:52.293Z,17.6
2017-10-13T10:40:54.238Z,17.8
2017-10-13T10:41:56.096Z,18.2
2017-10-13T10:42:58.118Z,18.5
2017-10-13T10:44:00.125Z,18.5
2017-10-13T10:45:01.998Z,18.3
2017-10-13T10:46:03.877Z,18.2
2017-10-13T10:47:05.746Z,17.9
2017-10-13T10:48:07.682Z,18.1
2017-10-13T10:49:09.658Z,18.4
2017-10-13T10:50:11.642Z,18.5
2017-10-13T10:51:13.526Z,18.9
2017-10-13T10:52:15.664Z,18.8
2017-10-13T10:53:17.593Z,18.5
2017-10-13T10:54:19.492Z,18.6
2017-10-13T10:55:21.424Z,18.5
2017-10-13T10:56:23.708Z,18.3
2017-10-13T10:57:25.822Z,18
2017-10-13T10:58:27.839Z,17.7
2017-10-13T10:59:29.785Z,17.9
2017-10-13T11:00:31.767Z,18
2017-10-13T11:01:33.743Z,18.1
2017-10-13T11:02:35.708Z,18.5
2017-10-13T11:03:37.639Z,18.6
2017-10-13T11:04:39.622Z,18.6
2017-10-13T11:05:41.853Z,18.5
2017-10-13T11:06:43.825Z,18.2
2017-10-13T11:07:45.724Z,17.8
2017-10-13T11:08:47.651Z,17.5
2017-10-13T11:09:49.570Z,17.7
2017-10-13T11:10:51.478Z,17.7
2017-10-13T11:11:53.417Z,17.9
2017-10-13T11:12:55.317Z,17.8
2017-10-13T11:13:57.237Z,17.7
2017-10-13T11:14:59.168Z,17.5
2017-10-13T11:16:01.149Z,17.6
2017-10-13T11:17:03.158Z,17.6
2017-10-13T11:18:05.065Z,17.4
2017-10-13T11:19:06.984Z,17.4
2017-10-13T11:20:08.941Z,17.4
2017-10-13T11:21:10.789Z,17.6
2017-10-13T11:22:12.723Z,17.9
2017-10-13T11:23:14.675Z,18.1
2017-10-13T11:24:16.556Z,18.3
2017-10-13T11:25:18.519Z,18.4
2017-10-13T11:26:20.474Z,18.4
2017-10-13T11:27:22.559Z,18
2017-10-13T11:28:24.536Z,17.6
2017-10-13T11:29:26.732Z,17.7
2017-10-13T11:30:28.642Z,18.1
2017-10-13T11:31:30.644Z,18.6
2017-10-13T11:32:32.612Z,19
2017-10-13T11:33:34.563Z,19.2
2017-10-13T11:34:36.412Z,19.4
2017-10-13T11:35:38.348Z,19.8
2017-10-13T11:36:40.288Z,19.8
2017-10-13T11:37:42.277Z,19.7
2017-10-13T11:38:44.254Z,20
2017-10-13T11:39:46.204Z,20
2017-10-13T11:40:48.178Z,19.9
2017-10-13T11:41:50.136Z,19.8
2017-10-13T11:42:52.009Z,19.6
2017-10-13T11:43:53.929Z,19.5
2017-10-13T11:44:55.859Z,19.9
2017-10-13T11:45:57.856Z,20
2017-10-13T11:46:59.820Z,19.8
2017-10-13T11:48:02.218Z,19.6
2017-10-13T11:49:04.091Z,19.8
2017-10-13T11:50:05.963Z,19.7
2017-10-13T11:51:07.927Z,20
2017-10-13T11:52:09.863Z,20.3
2017-10-13T11:53:11.795Z,20.6
2017-10-13T11:54:13.715Z,20.6
2017-10-13T11:55:15.646Z,20.5
2017-10-13T11:56:17.624Z,20.6
2017-10-13T11:57:19.497Z,20.5
2017-10-13T11:58:21.395Z,20.3
2017-10-13T11:59:23.429Z,20.2
2017-10-13T12:00:25.372Z,20.4
2017-10-13T12:01:27.420Z,20.6
2017-10-13T12:02:29.312Z,20.6
2017-10-13T12:03:31.331Z,20.6
2017-10-13T12:04:33.287Z,20.5
2017-10-13T12:05:35.273Z,20
2017-10-13T12:06:37.243Z,19.8
2017-10-13T12:07:39.151Z,19.6
2017-10-13T12:08:41.068Z,19.6
2017-10-13T12:09:43.271Z,19.4
2017-10-13T12:10:45.370Z,19.2
2017-10-13T12:11:47.323Z,19
2017-10-13T12:12:49.307Z,19.3
2017-10-13T12:13:51.221Z,19.5
2017-10-13T12:14:53.150Z,19.8
2017-10-13T12:15:55.121Z,20.1
2017-10-13T12:16:57.105Z,20.3
2017-10-13T12:17:58.994Z,20.2
2017-10-13T12:19:00.876Z,20
2017-10-13T12:20:02.990Z,20.1
2017-10-13T12:21:04.924Z,20.1
2017-10-13T12:22:07.302Z,20.2
2017-10-13T12:23:09.501Z,19.9
2017-10-13T12:24:11.328Z,19.8
2017-10-13T12:25:13.237Z,20
2017-10-13T12:26:15.157Z,20
2017-10-13T12:27:17.129Z,19.9
2017-10-13T12:28:19.072Z,19.9
2017-10-13T12:29:21.221Z,19.6
2017-10-13T12:30:23.225Z,19.7
2017-10-13T12:31:25.244Z,19.5
2017-10-13T12:32:27.259Z,19.8
2017-10-13T12:33:29.295Z,19.6
2017-10-13T12:34:31.232Z,19.6
2017-10-13T12:35:33.303Z,19.9
2017-10-13T12:36:35.242Z,20
2017-10-13T12:37:37.186Z,20
2017-10-13T12:38:39.116Z,20.1
2017-10-13T12:39:41.169Z,19.7
2017-10-13T12:40:43.112Z,19.7
2017-10-13T12:41:45.078Z,19.7
2017-10-13T12:42:47.030Z,19.6
2017-10-13T12:43:49.012Z,19.4
2017-10-13T12:44:50.970Z,19.2
2017-10-13T12:45:52.938Z,19.2
2017-10-13T12:46:54.881Z,19.1
2017-10-13T12:47:56.880Z,19.1
2017-10-13T12:48:58.739Z,19.1
2017-10-13T12:50:00.798Z,19
2017-10-13T12:51:02.728Z,19.2
2017-10-13T12:52:04.657Z,19.5
2017-10-13T12:53:06.585Z,19.5
2017-10-13T12:54:08.527Z,19.4
2017-10-13T12:55:10.393Z,19.3
2017-10-13T12:56:12.351Z,19.4
2017-10-13T12:57:14.286Z,19.6
2017-10-13T12:58:16.365Z,19.8
2017-10-13T12:59:18.238Z,19.9
2017-10-13T13:00:20.213Z,19.8
2017-10-13T13:01:22.131Z,19.8
2017-10-13T13:02:24.061Z,19.8
2017-10-13T13:03:25.968Z,20
2017-10-13T13:04:28.247Z,20.1
2017-10-13T13:05:30.323Z,19.9
2017-10-13T13:06:32.316Z,19.8
2017-10-13T13:07:34.289Z,19.7
2017-10-13T13:08:36.260Z,19.8
2017-10-13T13:09:38.344Z,19.9
2017-10-13T13:10:40.333Z,20.1
2017-10-13T13:11:42.214Z,20
2017-10-13T13:12:44.078Z,20.1
2017-10-13T13:13:46.002Z,20.1
2017-10-13T13:14:47.867Z,20.3
2017-10-13T13:15:49.791Z,20.4
2017-10-13T13:16:51.654Z,20.5
2017-10-13T13:17:53.529Z,20.6
2017-10-13T13:18:56.494Z,20.4
2017-10-13T13:19:58.459Z,20.3
2017-10-13T13:21:00.380Z,20.2
2017-10-13T13:22:02.381Z,19.9
2017-10-13T13:23:04.265Z,19.7
2017-10-13T13:24:06.204Z,19.8
2017-10-13T13:25:08.170Z,19.7
2017-10-13T13:26:10.096Z,19.7
2017-10-13T13:27:11.930Z,19.6
2017-10-13T13:28:13.817Z,19.5
2017-10-13T13:29:15.757Z,19.5
2017-10-13T13:30:17.765Z,19.6
2017-10-13T13:31:19.730Z,19.5
2017-10-13T13:32:21.893Z,19.5
2017-10-13T13:33:23.803Z,19.5
2017-10-13T13:34:25.782Z,19.3
2017-10-13T13:35:27.804Z,19.3
2017-10-13T13:36:29.750Z,19.3
2017-10-13T13:37:31.712Z,19.1
2017-10-13T13:38:33.833Z,19.2
2017-10-13T13:39:36.049Z,19.1
2017-10-13T13:40:38.031Z,19.2
2017-10-13T13:41:40.391Z,19.2
2017-10-13T13:42:42.565Z,19.2
2017-10-13T13:43:44.547Z,19.1
2017-10-13T13:44:46.570Z,19.3
2017-10-13T13:45:48.531Z,19.2
2017-10-13T13:46:50.506Z,19.3
2017-10-13T13:47:52.466Z,19.4
2017-10-13T13:48:54.419Z,19.4